Delta Virtual Airport Information Service

Manaus Eduardo Gomes International Airport

ICAO: SBEG Country: Brazil
Latitude: -3.03861 Longitude: -60.0497
Latest Arrival : DAC1892 (SBBR-SBEG) Latest Departure : AAL964 (1) (SBEG-KMIA)


WX CaptureLIVE
Data provided by noaa.gov | Fetched at 14:51:31

METAR : SBEG 091900Z 08007KT 9999 SCT020 34/20 Q1011

TAF : SBEG 091600Z 0918/1018 08006KT 9999 SCT030 TN23/1007Z TX34/1018Z PROB30 0918/0920 7000 TS SCT020 FEW025CB BECMG 0922/0924 00000KT CAVOK BECMG 1013/1015 08008KT SCT020 RMK PDU


Runway Data for SBEG
Data provided by openaviationdata.com

Runway ID Mag Var Hdg Length Elevation Surface ILS Freq ILS Id ILS Slope
10 -13 103° 8854 ft 230 ft Asphalt 110.3 IEG 3
28 -13 283° 8854 ft 230 ft Asphalt -- -- --

Manaus Eduardo Gomes International Airport, Brazil
Use only for reference purposes



Not for navigational purposes.